sensor_id;sensor_type;location;lat;lon;timestamp;P1;durP1;ratioP1;P2;durP2;ratioP2
8113;SDS011;4099;52.684;9.918;2023-07-16T00:02:08;2.40;;;1.70;;
8113;SDS011;4099;52.684;9.918;2023-07-16T00:07:12;1.80;;;1.70;;
8113;SDS011;4099;52.684;9.918;2023-07-16T00:12:14;1.87;;;1.70;;
8113;SDS011;4099;52.684;9.918;2023-07-16T00:17:15;1.80;;;1.70;;
8113;SDS011;4099;52.684;9.918;2023-07-16T00:22:20;2.17;;;1.97;;
8113;SDS011;4099;52.684;9.918;2023-07-16T00:27:21;2.60;;;1.60;;
8113;SDS011;4099;52.684;9.918;2023-07-16T00:32:23;3.07;;;1.70;;
8113;SDS011;4099;52.684;9.918;2023-07-16T00:37:27;2.20;;;1.77;;
8113;SDS011;4099;52.684;9.918;2023-07-16T00:42:29;3.97;;;1.80;;
8113;SDS011;4099;52.684;9.918;2023-07-16T00:47:31;1.70;;;1.60;;
8113;SDS011;4099;52.684;9.918;2023-07-16T00:52:34;2.53;;;1.80;;
8113;SDS011;4099;52.684;9.918;2023-07-16T00:57:37;2.87;;;1.90;;
8113;SDS011;4099;52.684;9.918;2023-07-16T01:02:39;3.67;;;1.90;;
8113;SDS011;4099;52.684;9.918;2023-07-16T01:07:44;1.80;;;1.70;;
8113;SDS011;4099;52.684;9.918;2023-07-16T01:12:55;2.23;;;2.03;;
8113;SDS011;4099;52.684;9.918;2023-07-16T01:17:58;2.40;;;1.90;;
8113;SDS011;4099;52.684;9.918;2023-07-16T01:23:11;1.80;;;1.67;;
8113;SDS011;4099;52.684;9.918;2023-07-16T01:28:39;3.20;;;2.10;;
8113;SDS011;4099;52.684;9.918;2023-07-16T01:33:55;2.60;;;2.17;;
8113;SDS011;4099;52.684;9.918;2023-07-16T01:38:58;1.97;;;1.80;;
8113;SDS011;4099;52.684;9.918;2023-07-16T01:44:00;2.07;;;1.73;;
8113;SDS011;4099;52.684;9.918;2023-07-16T01:49:05;2.73;;;2.00;;
8113;SDS011;4099;52.684;9.918;2023-07-16T01:54:07;1.90;;;1.80;;
8113;SDS011;4099;52.684;9.918;2023-07-16T01:59:08;2.10;;;1.90;;
8113;SDS011;4099;52.684;9.918;2023-07-16T02:04:12;3.17;;;1.80;;
8113;SDS011;4099;52.684;9.918;2023-07-16T02:09:14;2.77;;;1.90;;
8113;SDS011;4099;52.684;9.918;2023-07-16T02:14:16;3.47;;;2.03;;
8113;SDS011;4099;52.684;9.918;2023-07-16T02:19:20;2.60;;;2.10;;
8113;SDS011;4099;52.684;9.918;2023-07-16T02:24:21;2.63;;;2.17;;
8113;SDS011;4099;52.684;9.918;2023-07-16T02:29:25;2.33;;;1.57;;
8113;SDS011;4099;52.684;9.918;2023-07-16T02:34:29;2.90;;;1.87;;
8113;SDS011;4099;52.684;9.918;2023-07-16T02:39:31;2.47;;;1.90;;
8113;SDS011;4099;52.684;9.918;2023-07-16T02:44:33;2.83;;;2.17;;
8113;SDS011;4099;52.684;9.918;2023-07-16T02:49:39;2.73;;;2.00;;
8113;SDS011;4099;52.684;9.918;2023-07-16T02:54:41;2.63;;;2.00;;
8113;SDS011;4099;52.684;9.918;2023-07-16T02:59:43;2.53;;;1.80;;
8113;SDS011;4099;52.684;9.918;2023-07-16T03:04:46;2.00;;;1.90;;
8113;SDS011;4099;52.684;9.918;2023-07-16T03:09:48;3.93;;;1.83;;
8113;SDS011;4099;52.684;9.918;2023-07-16T03:14:50;2.20;;;2.00;;
8113;SDS011;4099;52.684;9.918;2023-07-16T03:19:55;3.77;;;2.30;;
8113;SDS011;4099;52.684;9.918;2023-07-16T03:24:57;2.23;;;2.03;;
8113;SDS011;4099;52.684;9.918;2023-07-16T03:29:59;2.23;;;2.03;;
8113;SDS011;4099;52.684;9.918;2023-07-16T03:35:03;2.10;;;1.90;;
8113;SDS011;4099;52.684;9.918;2023-07-16T03:40:12;2.37;;;2.17;;
8113;SDS011;4099;52.684;9.918;2023-07-16T03:45:18;2.40;;;2.20;;
8113;SDS011;4099;52.684;9.918;2023-07-16T03:50:21;3.77;;;2.00;;
8113;SDS011;4099;52.684;9.918;2023-07-16T03:55:23;2.27;;;2.13;;
8113;SDS011;4099;52.684;9.918;2023-07-16T04:00:25;3.30;;;2.40;;
8113;SDS011;4099;52.684;9.918;2023-07-16T04:05:29;2.70;;;2.50;;
8113;SDS011;4099;52.684;9.918;2023-07-16T04:10:31;2.40;;;2.23;;
8113;SDS011;4099;52.684;9.918;2023-07-16T04:15:33;3.90;;;2.50;;
8113;SDS011;4099;52.684;9.918;2023-07-16T04:20:36;2.80;;;2.53;;
8113;SDS011;4099;52.684;9.918;2023-07-16T04:25:38;2.77;;;2.10;;
8113;SDS011;4099;52.684;9.918;2023-07-16T04:30:39;2.83;;;2.60;;
8113;SDS011;4099;52.684;9.918;2023-07-16T04:35:42;2.70;;;2.37;;
8113;SDS011;4099;52.684;9.918;2023-07-16T04:40:44;2.67;;;2.47;;
8113;SDS011;4099;52.684;9.918;2023-07-16T04:45:46;2.17;;;2.07;;
8113;SDS011;4099;52.684;9.918;2023-07-16T04:50:49;2.60;;;2.40;;
8113;SDS011;4099;52.684;9.918;2023-07-16T04:55:52;2.40;;;2.20;;
8113;SDS011;4099;52.684;9.918;2023-07-16T05:00:54;3.07;;;2.43;;
8113;SDS011;4099;52.684;9.918;2023-07-16T05:05:57;3.53;;;2.70;;
8113;SDS011;4099;52.684;9.918;2023-07-16T05:10:59;3.30;;;2.60;;
8113;SDS011;4099;52.684;9.918;2023-07-16T05:16:02;3.03;;;2.37;;
8113;SDS011;4099;52.684;9.918;2023-07-16T05:21:06;3.90;;;2.50;;
8113;SDS011;4099;52.684;9.918;2023-07-16T05:26:07;3.30;;;2.90;;
8113;SDS011;4099;52.684;9.918;2023-07-16T05:31:09;3.37;;;2.93;;
8113;SDS011;4099;52.684;9.918;2023-07-16T05:36:13;2.93;;;2.63;;
8113;SDS011;4099;52.684;9.918;2023-07-16T05:41:14;4.57;;;3.03;;
8113;SDS011;4099;52.684;9.918;2023-07-16T05:46:17;4.47;;;2.87;;
8113;SDS011;4099;52.684;9.918;2023-07-16T05:51:20;3.90;;;2.60;;
8113;SDS011;4099;52.684;9.918;2023-07-16T05:56:22;7.47;;;2.90;;
8113;SDS011;4099;52.684;9.918;2023-07-16T06:01:24;3.03;;;2.60;;
8113;SDS011;4099;52.684;9.918;2023-07-16T06:06:27;4.53;;;3.33;;
8113;SDS011;4099;52.684;9.918;2023-07-16T06:11:30;4.40;;;3.97;;
8113;SDS011;4099;52.684;9.918;2023-07-16T06:16:32;4.13;;;3.70;;
8113;SDS011;4099;52.684;9.918;2023-07-16T06:21:35;6.30;;;3.90;;
8113;SDS011;4099;52.684;9.918;2023-07-16T06:26:37;5.43;;;3.40;;
8113;SDS011;4099;52.684;9.918;2023-07-16T06:31:41;3.37;;;3.00;;
8113;SDS011;4099;52.684;9.918;2023-07-16T06:36:44;3.33;;;3.00;;
8113;SDS011;4099;52.684;9.918;2023-07-16T06:41:47;2.70;;;2.50;;
8113;SDS011;4099;52.684;9.918;2023-07-16T06:46:49;4.63;;;2.70;;
8113;SDS011;4099;52.684;9.918;2023-07-16T06:51:52;2.60;;;2.40;;
8113;SDS011;4099;52.684;9.918;2023-07-16T06:56:54;3.57;;;2.50;;
8113;SDS011;4099;52.684;9.918;2023-07-16T07:01:56;3.73;;;2.57;;
8113;SDS011;4099;52.684;9.918;2023-07-16T07:06:59;3.10;;;2.80;;
8113;SDS011;4099;52.684;9.918;2023-07-16T07:12:01;4.00;;;2.60;;
8113;SDS011;4099;52.684;9.918;2023-07-16T07:17:03;3.57;;;2.40;;
8113;SDS011;4099;52.684;9.918;2023-07-16T07:22:07;3.10;;;2.00;;
8113;SDS011;4099;52.684;9.918;2023-07-16T07:27:09;4.50;;;2.67;;
8113;SDS011;4099;52.684;9.918;2023-07-16T07:32:11;3.37;;;2.47;;
8113;SDS011;4099;52.684;9.918;2023-07-16T07:37:14;3.77;;;2.50;;
8113;SDS011;4099;52.684;9.918;2023-07-16T07:42:16;3.67;;;2.10;;
8113;SDS011;4099;52.684;9.918;2023-07-16T07:47:18;2.93;;;2.60;;
8113;SDS011;4099;52.684;9.918;2023-07-16T07:52:21;3.73;;;2.53;;
8113;SDS011;4099;52.684;9.918;2023-07-16T07:57:23;4.23;;;2.43;;
8113;SDS011;4099;52.684;9.918;2023-07-16T08:02:25;4.33;;;2.50;;
8113;SDS011;4099;52.684;9.918;2023-07-16T08:07:29;2.53;;;2.33;;
8113;SDS011;4099;52.684;9.918;2023-07-16T08:12:30;4.37;;;2.57;;
8113;SDS011;4099;52.684;9.918;2023-07-16T08:17:32;3.73;;;2.50;;
8113;SDS011;4099;52.684;9.918;2023-07-16T08:22:35;3.77;;;2.50;;
8113;SDS011;4099;52.684;9.918;2023-07-16T08:27:37;4.37;;;2.57;;
8113;SDS011;4099;52.684;9.918;2023-07-16T08:32:39;4.63;;;2.70;;
8113;SDS011;4099;52.684;9.918;2023-07-16T08:37:43;3.43;;;2.80;;
8113;SDS011;4099;52.684;9.918;2023-07-16T08:42:45;5.07;;;3.20;;
8113;SDS011;4099;52.684;9.918;2023-07-16T08:47:47;4.03;;;2.80;;
8113;SDS011;4099;52.684;9.918;2023-07-16T08:52:50;3.13;;;2.83;;
8113;SDS011;4099;52.684;9.918;2023-07-16T08:57:52;4.03;;;2.90;;
8113;SDS011;4099;52.684;9.918;2023-07-16T09:02:54;4.77;;;2.97;;
8113;SDS011;4099;52.684;9.918;2023-07-16T09:07:58;3.20;;;2.90;;
8113;SDS011;4099;52.684;9.918;2023-07-16T09:12:59;3.83;;;3.10;;
8113;SDS011;4099;52.684;9.918;2023-07-16T09:18:01;3.30;;;3.00;;
8113;SDS011;4099;52.684;9.918;2023-07-16T09:23:05;4.50;;;2.80;;
8113;SDS011;4099;52.684;9.918;2023-07-16T09:28:07;3.93;;;3.00;;
8113;SDS011;4099;52.684;9.918;2023-07-16T09:33:09;3.57;;;2.80;;
8113;SDS011;4099;52.684;9.918;2023-07-16T09:38:14;4.93;;;3.03;;
8113;SDS011;4099;52.684;9.918;2023-07-16T09:43:16;4.28;;;2.85;;
8113;SDS011;4099;52.684;9.918;2023-07-16T09:48:18;3.47;;;2.90;;
8113;SDS011;4099;52.684;9.918;2023-07-16T09:53:23;3.67;;;2.77;;
8113;SDS011;4099;52.684;9.918;2023-07-16T09:58:25;4.32;;;3.05;;
8113;SDS011;4099;52.684;9.918;2023-07-16T10:03:28;3.00;;;2.70;;
8113;SDS011;4099;52.684;9.918;2023-07-16T10:08:33;4.22;;;2.83;;
8113;SDS011;4099;52.684;9.918;2023-07-16T10:13:35;3.42;;;3.10;;
8113;SDS011;4099;52.684;9.918;2023-07-16T10:18:39;3.67;;;3.15;;
8113;SDS011;4099;52.684;9.918;2023-07-16T10:23:58;4.27;;;3.03;;
8113;SDS011;4099;52.684;9.918;2023-07-16T10:29:00;3.53;;;2.80;;
8113;SDS011;4099;52.684;9.918;2023-07-16T10:34:02;4.30;;;2.90;;
8113;SDS011;4099;52.684;9.918;2023-07-16T10:39:07;3.03;;;2.70;;
8113;SDS011;4099;52.684;9.918;2023-07-16T10:44:08;5.87;;;3.23;;
8113;SDS011;4099;52.684;9.918;2023-07-16T10:49:10;3.50;;;2.73;;
8113;SDS011;4099;52.684;9.918;2023-07-16T10:54:13;3.90;;;2.90;;
8113;SDS011;4099;52.684;9.918;2023-07-16T10:59:15;2.77;;;2.53;;
8113;SDS011;4099;52.684;9.918;2023-07-16T11:04:17;3.63;;;3.00;;
8113;SDS011;4099;52.684;9.918;2023-07-16T11:09:20;3.70;;;3.27;;
8113;SDS011;4099;52.684;9.918;2023-07-16T11:14:22;3.77;;;3.37;;
8113;SDS011;4099;52.684;9.918;2023-07-16T11:19:24;3.23;;;2.93;;
8113;SDS011;4099;52.684;9.918;2023-07-16T11:24:28;3.60;;;2.93;;
8113;SDS011;4099;52.684;9.918;2023-07-16T11:29:33;5.17;;;3.50;;
8113;SDS011;4099;52.684;9.918;2023-07-16T11:34:36;4.03;;;3.10;;
8113;SDS011;4099;52.684;9.918;2023-07-16T11:39:39;3.47;;;3.17;;
8113;SDS011;4099;52.684;9.918;2023-07-16T11:44:41;4.15;;;3.15;;
8113;SDS011;4099;52.684;9.918;2023-07-16T11:49:43;3.97;;;2.97;;
8113;SDS011;4099;52.684;9.918;2023-07-16T11:54:46;5.07;;;2.97;;
8113;SDS011;4099;52.684;9.918;2023-07-16T11:59:48;2.92;;;2.70;;
8113;SDS011;4099;52.684;9.918;2023-07-16T12:04:50;3.75;;;3.08;;
8113;SDS011;4099;52.684;9.918;2023-07-16T12:09:53;3.45;;;3.05;;
8113;SDS011;4099;52.684;9.918;2023-07-16T12:14:55;4.72;;;3.33;;
8113;SDS011;4099;52.684;9.918;2023-07-16T12:19:56;4.68;;;3.38;;
8113;SDS011;4099;52.684;9.918;2023-07-16T12:25:00;4.13;;;3.30;;
8113;SDS011;4099;52.684;9.918;2023-07-16T12:30:01;3.90;;;2.80;;
8113;SDS011;4099;52.684;9.918;2023-07-16T12:35:04;3.42;;;2.97;;
8113;SDS011;4099;52.684;9.918;2023-07-16T12:40:08;3.85;;;2.95;;
8113;SDS011;4099;52.684;9.918;2023-07-16T12:45:10;4.15;;;3.58;;
8113;SDS011;4099;52.684;9.918;2023-07-16T12:50:12;4.35;;;3.45;;
8113;SDS011;4099;52.684;9.918;2023-07-16T12:55:15;3.60;;;3.20;;
8113;SDS011;4099;52.684;9.918;2023-07-16T13:00:17;3.30;;;2.97;;
8113;SDS011;4099;52.684;9.918;2023-07-16T13:05:18;3.35;;;3.03;;
8113;SDS011;4099;52.684;9.918;2023-07-16T13:10:22;4.25;;;2.95;;
8113;SDS011;4099;52.684;9.918;2023-07-16T13:15:24;3.42;;;2.80;;
8113;SDS011;4099;52.684;9.918;2023-07-16T13:20:26;6.75;;;3.35;;
8113;SDS011;4099;52.684;9.918;2023-07-16T13:25:31;3.97;;;3.22;;
8113;SDS011;4099;52.684;9.918;2023-07-16T13:30:33;3.50;;;3.13;;
8113;SDS011;4099;52.684;9.918;2023-07-16T13:35:35;3.45;;;2.92;;
8113;SDS011;4099;52.684;9.918;2023-07-16T13:40:38;5.00;;;3.13;;
8113;SDS011;4099;52.684;9.918;2023-07-16T13:45:40;3.60;;;2.72;;
8113;SDS011;4099;52.684;9.918;2023-07-16T13:50:41;3.38;;;3.08;;
8113;SDS011;4099;52.684;9.918;2023-07-16T13:55:45;4.88;;;3.05;;
8113;SDS011;4099;52.684;9.918;2023-07-16T14:00:46;8.80;;;4.07;;
8113;SDS011;4099;52.684;9.918;2023-07-16T14:05:48;5.55;;;3.33;;
8113;SDS011;4099;52.684;9.918;2023-07-16T14:10:51;3.83;;;3.45;;
8113;SDS011;4099;52.684;9.918;2023-07-16T14:15:53;5.00;;;2.97;;
8113;SDS011;4099;52.684;9.918;2023-07-16T14:20:55;3.42;;;3.08;;
8113;SDS011;4099;52.684;9.918;2023-07-16T14:25:59;4.07;;;3.17;;
8113;SDS011;4099;52.684;9.918;2023-07-16T14:31:01;4.70;;;3.50;;
8113;SDS011;4099;52.684;9.918;2023-07-16T14:36:03;4.43;;;3.40;;
8113;SDS011;4099;52.684;9.918;2023-07-16T14:41:07;3.95;;;3.10;;
8113;SDS011;4099;52.684;9.918;2023-07-16T14:46:08;4.43;;;2.83;;
8113;SDS011;4099;52.684;9.918;2023-07-16T14:51:15;4.53;;;3.33;;
8113;SDS011;4099;52.684;9.918;2023-07-16T14:56:19;5.63;;;3.50;;
8113;SDS011;4099;52.684;9.918;2023-07-16T15:01:21;3.83;;;2.85;;
8113;SDS011;4099;52.684;9.918;2023-07-16T15:06:23;5.78;;;3.10;;
8113;SDS011;4099;52.684;9.918;2023-07-16T15:11:26;5.72;;;3.10;;
8113;SDS011;4099;52.684;9.918;2023-07-16T15:16:28;3.38;;;3.08;;
8113;SDS011;4099;52.684;9.918;2023-07-16T15:21:31;3.70;;;3.08;;
8113;SDS011;4099;52.684;9.918;2023-07-16T15:26:34;3.67;;;2.90;;
8113;SDS011;4099;52.684;9.918;2023-07-16T15:31:36;3.75;;;3.38;;
8113;SDS011;4099;52.684;9.918;2023-07-16T15:36:37;3.08;;;2.75;;
8113;SDS011;4099;52.684;9.918;2023-07-16T15:41:41;4.77;;;3.00;;
8113;SDS011;4099;52.684;9.918;2023-07-16T15:46:42;3.78;;;2.90;;
8113;SDS011;4099;52.684;9.918;2023-07-16T15:51:44;5.10;;;3.20;;
8113;SDS011;4099;52.684;9.918;2023-07-16T15:56:48;5.33;;;3.37;;
8113;SDS011;4099;52.684;9.918;2023-07-16T16:01:49;5.03;;;3.50;;
8113;SDS011;4099;52.684;9.918;2023-07-16T16:06:53;4.13;;;2.80;;
8113;SDS011;4099;52.684;9.918;2023-07-16T16:11:56;3.70;;;2.73;;
8113;SDS011;4099;52.684;9.918;2023-07-16T16:16:59;3.10;;;2.80;;
8113;SDS011;4099;52.684;9.918;2023-07-16T16:22:01;2.97;;;2.67;;
8113;SDS011;4099;52.684;9.918;2023-07-16T16:27:04;4.07;;;2.73;;
8113;SDS011;4099;52.684;9.918;2023-07-16T16:32:07;4.00;;;2.80;;
8113;SDS011;4099;52.684;9.918;2023-07-16T16:37:10;2.43;;;2.23;;
8113;SDS011;4099;52.684;9.918;2023-07-16T16:42:13;3.47;;;2.43;;
8113;SDS011;4099;52.684;9.918;2023-07-16T16:47:15;3.90;;;2.80;;
8113;SDS011;4099;52.684;9.918;2023-07-16T16:52:17;3.00;;;2.70;;
8113;SDS011;4099;52.684;9.918;2023-07-16T16:57:20;2.72;;;2.53;;
8113;SDS011;4099;52.684;9.918;2023-07-16T17:02:22;3.30;;;2.45;;
8113;SDS011;4099;52.684;9.918;2023-07-16T17:07:25;3.58;;;2.72;;
8113;SDS011;4099;52.684;9.918;2023-07-16T17:12:28;3.63;;;3.10;;
8113;SDS011;4099;52.684;9.918;2023-07-16T17:17:30;3.42;;;2.42;;
8113;SDS011;4099;52.684;9.918;2023-07-16T17:22:32;3.05;;;2.75;;
8113;SDS011;4099;52.684;9.918;2023-07-16T17:27:35;2.90;;;2.60;;
8113;SDS011;4099;52.684;9.918;2023-07-16T17:32:38;4.15;;;3.10;;
8113;SDS011;4099;52.684;9.918;2023-07-16T17:37:39;5.33;;;3.00;;
8113;SDS011;4099;52.684;9.918;2023-07-16T17:42:43;3.25;;;2.65;;
8113;SDS011;4099;52.684;9.918;2023-07-16T17:47:44;3.70;;;2.80;;
8113;SDS011;4099;52.684;9.918;2023-07-16T17:52:46;3.87;;;2.80;;
8113;SDS011;4099;52.684;9.918;2023-07-16T17:57:50;3.80;;;3.13;;
8113;SDS011;4099;52.684;9.918;2023-07-16T18:02:52;3.93;;;2.80;;
8113;SDS011;4099;52.684;9.918;2023-07-16T18:07:54;3.90;;;3.30;;
8113;SDS011;4099;52.684;9.918;2023-07-16T18:12:58;2.90;;;2.60;;
8113;SDS011;4099;52.684;9.918;2023-07-16T18:17:59;3.57;;;2.60;;
8113;SDS011;4099;52.684;9.918;2023-07-16T18:23:01;3.97;;;3.10;;
8113;SDS011;4099;52.684;9.918;2023-07-16T18:28:04;3.27;;;2.60;;
8113;SDS011;4099;52.684;9.918;2023-07-16T18:33:06;3.97;;;3.00;;
8113;SDS011;4099;52.684;9.918;2023-07-16T18:38:08;4.10;;;3.37;;
8113;SDS011;4099;52.684;9.918;2023-07-16T18:43:11;3.63;;;2.97;;
8113;SDS011;4099;52.684;9.918;2023-07-16T18:48:13;3.40;;;2.90;;
8113;SDS011;4099;52.684;9.918;2023-07-16T18:53:15;3.30;;;3.00;;
8113;SDS011;4099;52.684;9.918;2023-07-16T18:58:18;3.87;;;2.97;;
8113;SDS011;4099;52.684;9.918;2023-07-16T19:03:20;4.60;;;3.10;;
8113;SDS011;4099;52.684;9.918;2023-07-16T19:08:22;5.53;;;3.20;;
8113;SDS011;4099;52.684;9.918;2023-07-16T19:13:26;5.90;;;3.17;;
8113;SDS011;4099;52.684;9.918;2023-07-16T19:18:27;4.40;;;3.07;;
8113;SDS011;4099;52.684;9.918;2023-07-16T19:23:32;5.27;;;3.50;;
8113;SDS011;4099;52.684;9.918;2023-07-16T19:28:35;3.40;;;3.10;;
8113;SDS011;4099;52.684;9.918;2023-07-16T19:33:37;4.03;;;3.33;;
8113;SDS011;4099;52.684;9.918;2023-07-16T19:38:39;6.33;;;3.50;;
8113;SDS011;4099;52.684;9.918;2023-07-16T19:43:43;4.80;;;3.03;;
8113;SDS011;4099;52.684;9.918;2023-07-16T19:48:45;4.97;;;3.30;;
8113;SDS011;4099;52.684;9.918;2023-07-16T19:53:46;4.37;;;3.60;;
8113;SDS011;4099;52.684;9.918;2023-07-16T19:58:49;6.60;;;3.50;;
8113;SDS011;4099;52.684;9.918;2023-07-16T20:03:51;3.73;;;3.33;;
8113;SDS011;4099;52.684;9.918;2023-07-16T20:08:53;3.83;;;3.43;;
8113;SDS011;4099;52.684;9.918;2023-07-16T20:13:56;4.00;;;3.60;;
8113;SDS011;4099;52.684;9.918;2023-07-16T20:18:58;4.90;;;3.43;;
8113;SDS011;4099;52.684;9.918;2023-07-16T20:24:00;4.33;;;3.27;;
8113;SDS011;4099;52.684;9.918;2023-07-16T20:29:04;4.33;;;3.50;;
8113;SDS011;4099;52.684;9.918;2023-07-16T20:34:06;3.97;;;3.40;;
8113;SDS011;4099;52.684;9.918;2023-07-16T20:39:08;6.07;;;3.77;;
8113;SDS011;4099;52.684;9.918;2023-07-16T20:44:11;3.90;;;3.17;;
8113;SDS011;4099;52.684;9.918;2023-07-16T20:49:13;4.50;;;3.80;;
8113;SDS011;4099;52.684;9.918;2023-07-16T20:54:15;4.80;;;3.80;;
8113;SDS011;4099;52.684;9.918;2023-07-16T20:59:18;6.07;;;4.57;;
8113;SDS011;4099;52.684;9.918;2023-07-16T21:04:20;6.07;;;4.63;;
8113;SDS011;4099;52.684;9.918;2023-07-16T21:09:21;6.20;;;3.87;;
8113;SDS011;4099;52.684;9.918;2023-07-16T21:14:25;6.37;;;3.80;;
8113;SDS011;4099;52.684;9.918;2023-07-16T21:19:27;4.53;;;4.03;;
8113;SDS011;4099;52.684;9.918;2023-07-16T21:24:29;4.93;;;3.90;;
8113;SDS011;4099;52.684;9.918;2023-07-16T21:29:32;5.07;;;4.23;;
8113;SDS011;4099;52.684;9.918;2023-07-16T21:34:34;5.50;;;4.37;;
8113;SDS011;4099;52.684;9.918;2023-07-16T21:39:35;5.53;;;4.27;;
8113;SDS011;4099;52.684;9.918;2023-07-16T21:44:39;4.40;;;4.00;;
8113;SDS011;4099;52.684;9.918;2023-07-16T21:49:40;5.17;;;4.30;;
8113;SDS011;4099;52.684;9.918;2023-07-16T21:54:42;5.97;;;4.07;;
8113;SDS011;4099;52.684;9.918;2023-07-16T21:59:46;4.73;;;4.23;;
8113;SDS011;4099;52.684;9.918;2023-07-16T22:04:48;4.70;;;4.20;;
8113;SDS011;4099;52.684;9.918;2023-07-16T22:09:50;4.80;;;4.30;;
8113;SDS011;4099;52.684;9.918;2023-07-16T22:14:53;5.33;;;4.30;;
8113;SDS011;4099;52.684;9.918;2023-07-16T22:19:55;6.60;;;4.30;;
8113;SDS011;4099;52.684;9.918;2023-07-16T22:24:57;6.43;;;4.43;;
8113;SDS011;4099;52.684;9.918;2023-07-16T22:30:01;4.57;;;3.83;;
8113;SDS011;4099;52.684;9.918;2023-07-16T22:35:04;5.93;;;4.30;;
8113;SDS011;4099;52.684;9.918;2023-07-16T22:40:07;6.20;;;4.87;;
8113;SDS011;4099;52.684;9.918;2023-07-16T22:45:11;6.00;;;4.50;;
8113;SDS011;4099;52.684;9.918;2023-07-16T22:50:13;5.70;;;4.67;;
8113;SDS011;4099;52.684;9.918;2023-07-16T22:55:15;6.00;;;3.90;;
8113;SDS011;4099;52.684;9.918;2023-07-16T23:00:18;4.67;;;4.23;;
8113;SDS011;4099;52.684;9.918;2023-07-16T23:05:21;4.23;;;3.83;;
8113;SDS011;4099;52.684;9.918;2023-07-16T23:10:23;5.23;;;4.17;;
8113;SDS011;4099;52.684;9.918;2023-07-16T23:15:26;8.00;;;4.47;;
8113;SDS011;4099;52.684;9.918;2023-07-16T23:20:28;5.37;;;4.10;;
8113;SDS011;4099;52.684;9.918;2023-07-16T23:25:30;4.90;;;3.93;;
8113;SDS011;4099;52.684;9.918;2023-07-16T23:30:38;5.10;;;4.60;;
8113;SDS011;4099;52.684;9.918;2023-07-16T23:35:40;6.37;;;4.80;;
8113;SDS011;4099;52.684;9.918;2023-07-16T23:40:42;6.03;;;4.73;;
8113;SDS011;4099;52.684;9.918;2023-07-16T23:45:48;6.20;;;4.57;;
8113;SDS011;4099;52.684;9.918;2023-07-16T23:50:50;5.47;;;4.67;;
8113;SDS011;4099;52.684;9.918;2023-07-16T23:55:52;5.93;;;4.47;;
